Gulfport Biloxi International Airport
KGPT : now visible

Airfield :











YOU CAN JOIN US ON...

 
LOGIN :

Register | Disclaimer

   EN    FR    IT 

 









Legend :    VFR   Marginal VFR   IFR   Intensive IFR   Very Intensive IFR
Visi :
Ceiling :
>= 8 km
>= 3000ft
5 to 8 km
1000 to 3000 ft
1500m to 5 km
500 to 1000 ft
800 to 1500m
200 to 500 ft
< 800m
< 200 ft
Symbols :   Thunderstorms  Fog  Heavy snow  Heavy precipitations  Wind > 20 kt







- Airport Elevation : 28 ft
- IATA code : GPT


KGPT - Gulfport Biloxi International

CURRENT METAR :
  • 261453Z 35003KT 10SM CLR 31/23 A3014 RMK AO2 SLP206 T03060233 51007

EXPIRED METARs :
  • 261353Z 05005KT 10SM CLR 28/23 A3013 RMK AO2 SLP203 T02830228
  • 261253Z 04003KT 10SM CLR 26/22 A3014 RMK AO2 SLP204 T02560222

TAF KGPT
Valid from the 26 at 12:00 until the 27 at 12:00 UTC


261134Z 2612/2712 VRB03KT P6SM FEW250
FM261500 12006KT P6SM FEW250
FM261900 16009KT P6SM FEW250
FM270200 VRB03KT P6SM SKC
KZHU FIR / North America



MET'MAP, your aeronautical weather chart ! - Copyright ORBIFLY December 2007 - Disclaimer

ORBIFLY MET'MAP TEAM :

Programming & Development : Alexandra Zaïnal
Concept & Development : Baudouin d'Aumeries
Co-Development & Prog : Marc-Olivier Méhu
Technical & hardware support : Manuel Goepfert

Contact : metmap@orbifly.com




SOURCES & CREDITS :

   NOAA       Earth
Advisory